createdAt,value
2022-07-25T00:01:37.017Z,101257.63
2022-07-25T00:04:09.456Z,101255.53
2022-07-25T00:06:40.751Z,101251.91
2022-07-25T00:09:08.933Z,101248.19
2022-07-25T00:11:38.292Z,101243.56
2022-07-25T00:14:07.466Z,101235.31
2022-07-25T00:16:35.839Z,101232.53
2022-07-25T00:19:03.873Z,101234.91
2022-07-25T00:21:31.816Z,101226.94
2022-07-25T00:23:59.727Z,101236.31
2022-07-25T00:26:27.691Z,101220.25
2022-07-25T00:28:57.249Z,101220.13
2022-07-25T00:31:25.253Z,101212.16
2022-07-25T00:33:53.213Z,101207.41
2022-07-25T00:36:21.377Z,101198.34
2022-07-25T00:38:49.423Z,101197.34
2022-07-25T00:41:17.727Z,101196.38
2022-07-25T00:43:46.468Z,101189.56
2022-07-25T00:46:18.966Z,101188.03
2022-07-25T00:48:47.900Z,101194.44
2022-07-25T00:51:17.420Z,101195.56
2022-07-25T00:53:46.331Z,101197.16
2022-07-25T00:56:14.240Z,101203.69
2022-07-25T00:58:42.221Z,101185.44
2022-07-25T01:01:10.257Z,101192.69
2022-07-25T01:03:39.751Z,101186.69
2022-07-25T01:06:08.954Z,101180.69
2022-07-25T01:08:37.045Z,101186.13
2022-07-25T01:11:05.388Z,101192.97
2022-07-25T01:13:34.227Z,101180.81
2022-07-25T01:16:02.187Z,101172.75
2022-07-25T01:18:30.223Z,101163.69
2022-07-25T01:20:59.609Z,101156.41
2022-07-25T01:23:27.945Z,101154.66
2022-07-25T01:25:55.882Z,101156.16
2022-07-25T01:28:23.860Z,101160.34
2022-07-25T01:30:52.119Z,101152.13
2022-07-25T01:33:22.028Z,101150.84
2022-07-25T01:35:50.857Z,101149.84
2022-07-25T01:38:20.149Z,101145.25
2022-07-25T01:40:48.093Z,101147.91
2022-07-25T01:43:16.023Z,101147.75
2022-07-25T01:45:43.932Z,101141.47
2022-07-25T01:48:11.876Z,101145.50
2022-07-25T01:50:39.804Z,101137.41
2022-07-25T01:53:07.690Z,101140.72
2022-07-25T01:55:36.999Z,101139.63
2022-07-25T01:58:05.349Z,101140.59
2022-07-25T02:00:35.504Z,101126.38
2022-07-25T02:03:20.853Z,101125.38
2022-07-25T02:05:48.815Z,101124.09
2022-07-25T02:08:16.788Z,101129.25
2022-07-25T02:10:46.460Z,101126.47
2022-07-25T02:13:14.479Z,101137.06
2022-07-25T02:15:42.427Z,101134.56
2022-07-25T02:18:10.319Z,101135.25
2022-07-25T02:20:38.221Z,101137.91
2022-07-25T02:23:07.097Z,101131.91
2022-07-25T02:25:35.061Z,101129.25
2022-07-25T02:28:04.711Z,101124.41
2022-07-25T02:30:32.685Z,101132.50
2022-07-25T02:33:01.066Z,101118.59
2022-07-25T02:35:29.039Z,101121.22
2022-07-25T02:37:56.977Z,101105.47
2022-07-25T02:40:24.918Z,101114.25
2022-07-25T02:42:52.875Z,101113.44
2022-07-25T02:45:22.196Z,101114.38
2022-07-25T02:47:50.214Z,101116.22
2022-07-25T02:50:18.176Z,101118.03
2022-07-25T02:52:46.132Z,101115.53
2022-07-25T02:55:14.132Z,101118.88
2022-07-25T02:57:42.047Z,101119.84
2022-07-25T03:00:11.376Z,101116.88
2022-07-25T03:02:40.762Z,101114.25
2022-07-25T03:05:09.695Z,101124.41
2022-07-25T03:07:37.833Z,101122.59
2022-07-25T03:10:08.928Z,101121.75
2022-07-25T03:12:39.928Z,101129.41
2022-07-25T03:15:08.847Z,101119.34
2022-07-25T03:17:37.019Z,101111.09
2022-07-25T03:20:08.199Z,101116.13
2022-07-25T03:22:36.512Z,101117.63
2022-07-25T03:25:04.748Z,101113.69
2022-07-25T03:27:32.734Z,101096.66
2022-07-25T03:30:00.665Z,101095.38
2022-07-25T03:32:28.609Z,101101.22
2022-07-25T03:34:56.485Z,101101.88
2022-07-25T03:37:25.772Z,101101.59
2022-07-25T03:39:53.800Z,101099.47
2022-07-25T03:42:26.512Z,101103.63
2022-07-25T03:44:54.713Z,101103.34
2022-07-25T03:47:22.620Z,101101.38
2022-07-25T03:49:50.559Z,101089.63
2022-07-25T03:52:18.574Z,101093.47
2022-07-25T03:54:47.923Z,101083.25
2022-07-25T03:57:15.827Z,101089.75
2022-07-25T03:59:43.848Z,101087.84
2022-07-25T04:02:12.337Z,101087.69
2022-07-25T04:04:40.259Z,101076.22
2022-07-25T04:07:08.129Z,101070.63
2022-07-25T04:09:36.159Z,101076.63
2022-07-25T04:12:06.301Z,101081.31
2022-07-25T04:14:34.204Z,101070.38
2022-07-25T04:17:02.200Z,101075.91
2022-07-25T04:19:30.160Z,101073.78
2022-07-25T04:21:58.071Z,101069.16
2022-07-25T04:24:25.995Z,101072.66
2022-07-25T04:26:53.896Z,101060.03
2022-07-25T04:29:23.122Z,101056.53
2022-07-25T04:31:51.170Z,101058.72
2022-07-25T04:34:19.112Z,101054.28
2022-07-25T04:36:47.022Z,101055.63
2022-07-25T04:39:14.982Z,101059.66
2022-07-25T04:41:42.927Z,101049.69
2022-07-25T04:44:10.795Z,101047.41
2022-07-25T04:46:41.888Z,101051.25
2022-07-25T04:49:09.931Z,101041.31
2022-07-25T04:51:37.936Z,101039.19
2022-07-25T04:54:06.908Z,101040.69
2022-07-25T04:56:35.087Z,101046.69
2022-07-25T04:59:06.727Z,101038.56
2022-07-25T05:01:35.194Z,101039.19
2022-07-25T05:04:04.976Z,101033.59
2022-07-25T05:06:33.246Z,101036.75
2022-07-25T05:09:01.209Z,101036.28
2022-07-25T05:11:29.224Z,101034.81
2022-07-25T05:13:57.400Z,101033.66
2022-07-25T05:16:25.745Z,101031.84
2022-07-25T05:18:53.700Z,101021.75
2022-07-25T05:21:22.988Z,101014.28
2022-07-25T05:23:50.942Z,101025.44
2022-07-25T05:26:18.811Z,101024.28
2022-07-25T05:28:46.728Z,101019.97
2022-07-25T05:31:14.744Z,101023.63
2022-07-25T05:33:42.781Z,101021.78
2022-07-25T05:36:10.897Z,101008.50
2022-07-25T05:38:40.152Z,101007.69
2022-07-25T05:41:08.338Z,101004.88
2022-07-25T05:43:36.232Z,101015.31
2022-07-25T05:46:05.801Z,101016.31
2022-07-25T05:48:33.972Z,101005.69
2022-07-25T05:51:01.912Z,101005.84
2022-07-25T05:53:29.967Z,100994.25
2022-07-25T05:55:59.528Z,100992.22
2022-07-25T05:58:29.966Z,100990.59
2022-07-25T06:00:58.430Z,100992.63
2022-07-25T06:03:26.448Z,100990.59
2022-07-25T06:05:56.432Z,100992.28
2022-07-25T06:08:24.452Z,101001.59
2022-07-25T06:10:52.903Z,100993.13
2022-07-25T06:13:24.505Z,100983.53
2022-07-25T06:15:53.459Z,100969.41
2022-07-25T06:18:21.424Z,100976.25
2022-07-25T06:20:49.644Z,100979.53
2022-07-25T06:23:17.598Z,100969.75
2022-07-25T06:25:50.335Z,100973.72
2022-07-25T06:28:18.843Z,100966.06
2022-07-25T06:30:48.714Z,100959.56
2022-07-25T06:33:16.684Z,100959.06
2022-07-25T06:35:44.580Z,100950.72
2022-07-25T06:38:12.726Z,100955.22
2022-07-25T06:40:40.626Z,100954.41
2022-07-25T06:43:08.511Z,100948.91
2022-07-25T06:45:36.570Z,100955.88
2022-07-25T06:48:06.961Z,100951.22
2022-07-25T06:50:34.855Z,100949.53
2022-07-25T06:53:02.772Z,100958.69
2022-07-25T06:55:30.709Z,100961.50
2022-07-25T06:57:58.612Z,100950.66
2022-07-25T07:00:26.751Z,100949.53
2022-07-25T07:02:58.543Z,100952.63
2022-07-25T07:05:30.391Z,100946.75
2022-07-25T07:07:58.300Z,100953.59
2022-07-25T07:10:26.981Z,100946.22
2022-07-25T07:13:04.932Z,100959.06
2022-07-25T07:15:35.883Z,100950.19
2022-07-25T07:18:03.903Z,100945.84
2022-07-25T07:20:33.262Z,100945.84
2022-07-25T07:23:01.160Z,100945.59
2022-07-25T07:25:30.795Z,100947.16
2022-07-25T07:27:59.172Z,100943.53
2022-07-25T07:30:52.172Z,100941.19
2022-07-25T07:33:15.385Z,100926.09
2022-07-25T07:35:46.328Z,100930.19
2022-07-25T07:38:14.872Z,100923.41
2022-07-25T07:40:43.117Z,100928.19
2022-07-25T07:43:11.164Z,100918.97
2022-07-25T07:45:39.114Z,100917.59
2022-07-25T07:48:08.083Z,100918.44
2022-07-25T07:50:36.508Z,100924.34
2022-07-25T07:53:06.857Z,100928.38
2022-07-25T07:55:46.715Z,100929.28
2022-07-25T07:58:16.770Z,100926.81
2022-07-25T08:00:45.662Z,100930.88
2022-07-25T08:03:14.091Z,100929.78
2022-07-25T08:05:43.457Z,100928.59
2022-07-25T08:08:14.872Z,100931.19
2022-07-25T08:10:44.533Z,100924.16
2022-07-25T08:13:17.397Z,100928.16
2022-07-25T08:15:47.770Z,100934.53
2022-07-25T08:18:16.993Z,100936.38
2022-07-25T08:20:46.069Z,100926.53
2022-07-25T08:23:15.514Z,100930.47
2022-07-25T08:25:44.234Z,100925.13
2022-07-25T08:28:12.233Z,100917.31
2022-07-25T08:30:41.663Z,100921.00
2022-07-25T08:33:13.224Z,100927.44
2022-07-25T08:35:42.217Z,100911.59
2022-07-25T08:38:11.651Z,100921.91
2022-07-25T08:40:41.167Z,100923.28
2022-07-25T08:43:13.811Z,100912.47
2022-07-25T08:45:46.088Z,100916.25
2022-07-25T08:48:14.533Z,100918.19
2022-07-25T08:50:42.576Z,100905.06
2022-07-25T08:53:32.216Z,100914.94
2022-07-25T08:56:00.003Z,100915.31
2022-07-25T08:58:27.925Z,100915.94
2022-07-25T09:00:55.833Z,100915.66
2022-07-25T09:03:23.813Z,100908.00
2022-07-25T09:05:52.575Z,100905.91
2022-07-25T09:08:20.479Z,100907.50
2022-07-25T09:10:49.854Z,100904.25
2022-07-25T09:13:20.478Z,100907.50
2022-07-25T09:15:50.070Z,100905.19
2022-07-25T09:18:20.392Z,100901.41
2022-07-25T09:20:51.329Z,100905.00
2022-07-25T09:23:29.869Z,100908.53
2022-07-25T09:26:04.629Z,100898.31
2022-07-25T09:28:40.935Z,100893.56
2022-07-25T09:31:09.846Z,100890.28
2022-07-25T09:33:47.252Z,100897.84
2022-07-25T09:36:15.745Z,100892.50
2022-07-25T09:38:53.352Z,100894.50
2022-07-25T09:41:21.596Z,100895.81
2022-07-25T09:43:50.935Z,100889.06
2022-07-25T09:46:19.014Z,100889.97
2022-07-25T09:48:47.197Z,100891.47
2022-07-25T09:51:15.240Z,100890.53
2022-07-25T09:53:43.585Z,100892.06
2022-07-25T09:56:11.496Z,100881.84
2022-07-25T09:58:39.392Z,100884.44
2022-07-25T10:01:09.470Z,100874.84
2022-07-25T10:03:49.403Z,100869.34
2022-07-25T10:06:22.652Z,100867.16
2022-07-25T10:08:52.031Z,100854.81
2022-07-25T10:11:21.119Z,100862.78
2022-07-25T10:13:49.550Z,100862.09
2022-07-25T10:16:21.615Z,100876.00
2022-07-25T10:18:51.862Z,100860.25
2022-07-25T10:21:29.027Z,100865.16
2022-07-25T10:24:02.497Z,100860.56
2022-07-25T10:26:30.880Z,100856.50
2022-07-25T10:28:59.771Z,100856.94
2022-07-25T10:31:38.544Z,100850.63
2022-07-25T10:34:08.451Z,100853.56
2022-07-25T10:36:44.816Z,100852.81
2022-07-25T10:39:14.932Z,100845.72
2022-07-25T10:41:44.697Z,100842.47
2022-07-25T10:44:14.114Z,100848.03
2022-07-25T10:46:45.154Z,100839.59
2022-07-25T10:49:19.633Z,100831.50
2022-07-25T10:51:57.243Z,100841.53
2022-07-25T10:54:25.152Z,100835.28
2022-07-25T10:56:55.346Z,100837.78
2022-07-25T10:59:31.621Z,100848.88
2022-07-25T11:02:01.310Z,100841.16
2022-07-25T11:04:29.482Z,100840.97
2022-07-25T11:06:58.093Z,100834.34
2022-07-25T11:09:28.166Z,100833.31
2022-07-25T11:11:58.581Z,100835.53
2022-07-25T11:14:31.272Z,100830.00
2022-07-25T11:17:12.632Z,100830.19
2022-07-25T11:19:40.970Z,100834.34
2022-07-25T11:22:09.294Z,100827.13
2022-07-25T11:24:38.355Z,100824.03
2022-07-25T11:27:12.183Z,100817.47
2022-07-25T11:29:41.280Z,100815.88
2022-07-25T11:32:12.078Z,100809.56
2022-07-25T11:34:43.932Z,100808.34
2022-07-25T11:37:14.413Z,100801.34
2022-07-25T11:39:44.645Z,100800.53
2022-07-25T11:42:16.220Z,100800.94
2022-07-25T11:44:48.098Z,100800.47
2022-07-25T11:47:29.455Z,100798.16
2022-07-25T11:49:58.807Z,100802.75
2022-07-25T11:52:29.894Z,100804.78
2022-07-25T11:55:00.358Z,100794.91
2022-07-25T11:57:29.259Z,100788.13
2022-07-25T11:59:57.244Z,100787.16
2022-07-25T12:02:28.831Z,100783.91
2022-07-25T12:04:58.883Z,100788.50
2022-07-25T12:07:40.922Z,100773.66
2022-07-25T12:10:11.203Z,100777.34
2022-07-25T12:12:50.810Z,100774.28
2022-07-25T12:15:21.210Z,100774.28
2022-07-25T12:17:50.848Z,100767.31
2022-07-25T12:20:21.037Z,100772.66
2022-07-25T12:22:50.019Z,100763.72
2022-07-25T12:25:18.094Z,100762.19
2022-07-25T12:27:46.400Z,100758.41
2022-07-25T12:30:14.752Z,100759.38
2022-07-25T12:32:43.321Z,100754.63
2022-07-25T12:35:14.740Z,100751.56
2022-07-25T12:37:43.515Z,100746.13
2022-07-25T12:40:13.383Z,100747.41
2022-07-25T12:42:41.542Z,100751.56
2022-07-25T12:45:10.288Z,100747.25
2022-07-25T12:47:38.734Z,100749.16
2022-07-25T12:50:07.616Z,100755.88
2022-07-25T12:52:38.086Z,100755.22
2022-07-25T12:55:06.368Z,100756.69
2022-07-25T12:57:35.037Z,100752.59
2022-07-25T13:00:03.248Z,100744.97
2022-07-25T13:02:32.372Z,100741.81
2022-07-25T13:05:00.571Z,100745.16
2022-07-25T13:07:28.469Z,100740.97
2022-07-25T13:09:57.723Z,100741.56
2022-07-25T13:12:25.706Z,100734.22
2022-07-25T13:14:53.686Z,100740.59
2022-07-25T13:17:26.887Z,100738.84
2022-07-25T13:19:55.444Z,100734.03
2022-07-25T13:22:23.471Z,100731.63
2022-07-25T13:24:51.753Z,100740.00
2022-07-25T13:27:21.691Z,100726.06
2022-07-25T13:29:54.315Z,100718.13
2022-07-25T13:32:23.213Z,100713.38
2022-07-25T13:34:51.437Z,100720.22
2022-07-25T13:37:19.343Z,100717.44
2022-07-25T13:39:47.285Z,100708.59
2022-07-25T13:42:15.166Z,100703.06
2022-07-25T13:44:44.494Z,100696.66
2022-07-25T13:47:12.442Z,100696.28
2022-07-25T13:49:41.287Z,100699.75
2022-07-25T13:52:09.254Z,100691.31
2022-07-25T13:54:37.546Z,100695.03
2022-07-25T13:57:05.649Z,100678.78
2022-07-25T13:59:33.625Z,100678.19
2022-07-25T14:02:03.145Z,100680.47
2022-07-25T14:04:31.519Z,100684.59
2022-07-25T14:07:00.723Z,100681.13
2022-07-25T14:09:28.896Z,100676.38
2022-07-25T14:11:56.977Z,100679.38
2022-07-25T14:14:25.014Z,100663.31
2022-07-25T14:16:53.168Z,100666.59
2022-07-25T14:19:24.127Z,100672.00
2022-07-25T14:21:52.103Z,100668.53
2022-07-25T14:24:20.196Z,100671.63
2022-07-25T14:26:49.205Z,100670.81
2022-07-25T14:29:17.187Z,100660.50
2022-07-25T14:31:45.167Z,100665.84
2022-07-25T14:34:15.396Z,100667.69
2022-07-25T14:36:47.526Z,100667.69
2022-07-25T14:39:16.126Z,100665.81
2022-07-25T14:41:44.107Z,100661.50
2022-07-25T14:44:13.287Z,100661.94
2022-07-25T14:46:43.056Z,100645.91
2022-07-25T14:49:14.147Z,100648.75
2022-07-25T14:51:43.002Z,100649.56
2022-07-25T14:54:12.711Z,100656.75
2022-07-25T14:56:40.859Z,100653.81
2022-07-25T14:59:09.857Z,100648.66
2022-07-25T15:01:39.213Z,100647.47
2022-07-25T15:04:07.662Z,100635.53
2022-07-25T15:06:35.723Z,100631.63
2022-07-25T15:09:03.893Z,100631.44
2022-07-25T15:11:33.446Z,100628.34
2022-07-25T15:14:01.479Z,100621.50
2022-07-25T15:16:29.770Z,100627.66
2022-07-25T15:19:15.606Z,100623.34
2022-07-25T15:21:44.576Z,100608.28
2022-07-25T15:24:12.545Z,100597.34
2022-07-25T15:26:42.278Z,100595.72
2022-07-25T15:29:12.026Z,100608.25
2022-07-25T15:31:40.335Z,100605.56
2022-07-25T15:34:08.705Z,100598.13
2022-07-25T15:36:36.663Z,100599.97
2022-07-25T15:39:04.920Z,100602.63
2022-07-25T15:41:33.080Z,100602.84
2022-07-25T15:44:02.390Z,100602.84
2022-07-25T15:46:30.489Z,100606.94
2022-07-25T15:48:58.872Z,100600.13
2022-07-25T15:51:26.882Z,100602.47
2022-07-25T15:53:54.960Z,100600.59
2022-07-25T15:56:22.936Z,100605.91
2022-07-25T15:58:50.895Z,100606.63
2022-07-25T16:01:20.246Z,100611.41
2022-07-25T16:03:48.273Z,100611.19
2022-07-25T16:06:20.606Z,100617.09
2022-07-25T16:08:50.105Z,100613.91
2022-07-25T16:11:18.056Z,100625.88
2022-07-25T16:13:46.001Z,100612.72
2022-07-25T16:16:13.964Z,100613.44
2022-07-25T16:18:43.285Z,100616.41
2022-07-25T16:21:11.182Z,100614.06
2022-07-25T16:23:43.728Z,100612.97
2022-07-25T16:26:13.752Z,100596.44
2022-07-25T16:28:41.920Z,100601.16
2022-07-25T16:31:10.236Z,100577.53
2022-07-25T16:33:38.199Z,100573.38
2022-07-25T16:36:08.340Z,100584.88
2022-07-25T16:38:36.284Z,100581.94
2022-07-25T16:41:04.420Z,100579.00
2022-07-25T16:43:32.453Z,100581.28
2022-07-25T16:46:00.411Z,100583.75
2022-07-25T16:48:29.241Z,100578.25
2022-07-25T16:50:57.149Z,100575.38
2022-07-25T16:53:26.855Z,100574.97
2022-07-25T16:55:54.742Z,100569.63
2022-07-25T16:58:22.736Z,100554.63
2022-07-25T17:00:50.669Z,100551.34
2022-07-25T17:03:18.579Z,100547.19
2022-07-25T17:05:47.042Z,100541.66
2022-07-25T17:08:14.920Z,100538.38
2022-07-25T17:10:44.517Z,100528.72
2022-07-25T17:13:12.491Z,100525.41
2022-07-25T17:15:40.485Z,100519.25
2022-07-25T17:18:08.472Z,100513.28
2022-07-25T17:20:36.397Z,100511.44
2022-07-25T17:23:04.440Z,100512.28
2022-07-25T17:25:32.704Z,100499.13
2022-07-25T17:28:02.679Z,100494.44
2022-07-25T17:30:30.599Z,100504.28
2022-07-25T17:32:59.666Z,100498.56
2022-07-25T17:35:27.616Z,100502.25
2022-07-25T17:37:55.545Z,100503.91
2022-07-25T17:40:23.517Z,100500.41
2022-07-25T17:42:51.389Z,100500.78
2022-07-25T17:45:20.797Z,100505.66
2022-07-25T17:47:48.761Z,100513.84
2022-07-25T17:50:17.658Z,100508.06
2022-07-25T17:52:45.659Z,100517.91
2022-07-25T17:55:13.612Z,100524.25
2022-07-25T17:57:43.451Z,100519.09
2022-07-25T18:00:13.202Z,100518.28
2022-07-25T18:02:42.778Z,100518.03
2022-07-25T18:05:10.943Z,100517.38
2022-07-25T18:07:40.838Z,100515.53
2022-07-25T18:10:09.284Z,100519.38
2022-07-25T18:12:37.205Z,100501.09
2022-07-25T18:15:05.746Z,100496.16
2022-07-25T18:17:33.628Z,100475.19
2022-07-25T18:20:02.934Z,100474.41
2022-07-25T18:22:30.867Z,100485.44
2022-07-25T18:24:58.911Z,100486.41
2022-07-25T18:27:26.989Z,100486.22
2022-07-25T18:29:54.901Z,100471.44
2022-07-25T18:32:22.834Z,100466.97
2022-07-25T18:34:50.883Z,100470.63
2022-07-25T18:37:20.319Z,100470.81
2022-07-25T18:39:48.292Z,100450.88
2022-07-25T18:42:16.167Z,100453.72
2022-07-25T18:44:44.098Z,100458.41
2022-07-25T18:47:11.977Z,100465.97
2022-07-25T18:49:42.044Z,100466.16
2022-07-25T18:52:09.956Z,100472.66
2022-07-25T18:54:39.243Z,100464.03
2022-07-25T18:57:07.214Z,100471.38
2022-07-25T18:59:35.210Z,100468.09
2022-07-25T19:02:03.334Z,100471.09
2022-07-25T19:04:31.299Z,100462.16
2022-07-25T19:06:59.653Z,100458.06
2022-07-25T19:09:27.591Z,100458.59
2022-07-25T19:11:57.263Z,100468.41
2022-07-25T19:14:27.332Z,100461.81
2022-07-25T19:16:57.521Z,100458.31
2022-07-25T19:19:25.937Z,100461.34
2022-07-25T19:21:53.927Z,100446.56
2022-07-25T19:24:22.303Z,100448.59
2022-07-25T19:26:50.956Z,100442.63
2022-07-25T19:29:21.179Z,100429.50
2022-07-25T19:31:49.191Z,100429.03
2022-07-25T19:34:17.118Z,100422.06
2022-07-25T19:36:46.000Z,100424.09
2022-07-25T19:39:14.392Z,100410.13
2022-07-25T19:41:46.666Z,100400.06
2022-07-25T19:44:15.219Z,100391.06
2022-07-25T19:46:44.978Z,100385.09
2022-07-25T19:49:13.080Z,100391.97
2022-07-25T19:51:41.128Z,100393.97
2022-07-25T19:54:09.985Z,100399.66
2022-07-25T19:56:38.232Z,100386.09
2022-07-25T19:59:06.235Z,100392.97
2022-07-25T20:01:35.985Z,100397.66
2022-07-25T20:04:09.072Z,100408.19
2022-07-25T20:06:37.375Z,100412.84
2022-07-25T20:09:05.936Z,100402.03
2022-07-25T20:11:34.668Z,100409.56
2022-07-25T20:14:02.647Z,100410.88
2022-07-25T20:16:30.868Z,100412.91
2022-07-25T20:19:00.287Z,100412.25
2022-07-25T20:21:29.781Z,100413.44
2022-07-25T20:23:57.800Z,100419.31
2022-07-25T20:26:25.714Z,100416.00
2022-07-25T20:28:53.857Z,100420.84
2022-07-25T20:31:24.434Z,100423.88
2022-07-25T20:33:52.820Z,100427.50
2022-07-25T20:36:21.435Z,100428.22
2022-07-25T20:38:51.007Z,100419.97
2022-07-25T20:41:19.011Z,100419.16
2022-07-25T20:43:47.256Z,100417.84
2022-07-25T20:46:15.226Z,100416.19
2022-07-25T20:48:43.228Z,100412.06
2022-07-25T20:51:12.420Z,100421.06
2022-07-25T20:53:41.861Z,100410.41
2022-07-25T20:56:11.278Z,100415.06
2022-07-25T20:58:39.214Z,100423.22
2022-07-25T21:01:07.203Z,100428.38
2022-07-25T21:03:36.042Z,100420.91
2022-07-25T21:06:03.975Z,100424.25
2022-07-25T21:08:31.946Z,100412.78
2022-07-25T21:10:59.931Z,100410.28
2022-07-25T21:13:30.918Z,100407.81
2022-07-25T21:16:01.092Z,100415.13
2022-07-25T21:18:29.025Z,100421.94
2022-07-25T21:20:57.040Z,100415.97
2022-07-25T21:23:26.420Z,100413.31
2022-07-25T21:25:54.385Z,100411.66
2022-07-25T21:28:22.364Z,100410.03
2022-07-25T21:30:51.858Z,100410.03
2022-07-25T21:33:20.024Z,100411.66
2022-07-25T21:35:51.171Z,100410.03
2022-07-25T21:38:27.418Z,100397.53
2022-07-25T21:40:57.135Z,100402.06
2022-07-25T21:43:25.342Z,100406.53
2022-07-25T21:45:54.754Z,100409.00
2022-07-25T21:48:43.374Z,100399.41
2022-07-25T21:51:19.056Z,100393.25
2022-07-25T21:53:51.251Z,100389.56
2022-07-25T21:56:19.224Z,100391.22
2022-07-25T21:58:47.118Z,100386.09
2022-07-25T22:01:16.501Z,100393.88
2022-07-25T22:03:44.590Z,100389.75
2022-07-25T22:06:12.722Z,100387.75
2022-07-25T22:08:40.627Z,100380.78
2022-07-25T22:11:20.899Z,100386.09
2022-07-25T22:13:57.783Z,100391.41
2022-07-25T22:16:28.031Z,100389.91
2022-07-25T22:18:57.221Z,100399.75
2022-07-25T22:21:25.369Z,100388.28
2022-07-25T22:23:53.259Z,100384.16
2022-07-25T22:26:21.374Z,100378.84
2022-07-25T22:28:49.515Z,100378.19
2022-07-25T22:31:17.944Z,100376.53
2022-07-25T22:33:47.273Z,100373.88
2022-07-25T22:36:15.213Z,100368.56
2022-07-25T22:38:44.113Z,100354.28
2022-07-25T22:41:12.407Z,100362.41
2022-07-25T22:43:52.442Z,100365.91
2022-07-25T22:46:26.700Z,100364.25
2022-07-25T22:48:56.219Z,100367.25
2022-07-25T22:51:24.756Z,100360.47
2022-07-25T22:53:52.674Z,100352.69
2022-07-25T22:56:20.805Z,100351.03
2022-07-25T22:58:49.398Z,100357.50
2022-07-25T23:01:17.641Z,100344.75
2022-07-25T23:03:46.172Z,100347.41
2022-07-25T23:06:15.567Z,100341.31
2022-07-25T23:08:43.695Z,100336.00
2022-07-25T23:11:11.562Z,100331.84
2022-07-25T23:13:39.621Z,100329.34
2022-07-25T23:16:10.188Z,100324.88
2022-07-25T23:18:38.754Z,100323.25
2022-07-25T23:21:06.838Z,100315.63
2022-07-25T23:23:36.268Z,100308.78
2022-07-25T23:26:04.445Z,100308.50
2022-07-25T23:28:32.450Z,100306.84
2022-07-25T23:31:00.399Z,100293.13
2022-07-25T23:33:29.519Z,100283.47
2022-07-25T23:35:58.411Z,100277.53
2022-07-25T23:38:26.447Z,100284.50
2022-07-25T23:40:55.744Z,100297.50
2022-07-25T23:43:40.833Z,100302.78
2022-07-25T23:46:11.745Z,100301.47
2022-07-25T23:48:39.811Z,100300.19
2022-07-25T23:51:07.997Z,100301.38
2022-07-25T23:53:36.534Z,100305.84
2022-07-25T23:56:06.350Z,100285.97
2022-07-25T23:58:34.447Z,100281.66
